sensor_id;sensor_type;location;lat;lon;timestamp;P1;durP1;ratioP1;P2;durP2;ratioP2
52126;SDS011;38120;53.176;6.614;2024-01-30T00:01:50;21.65;;;18.85;;
52126;SDS011;38120;53.176;6.614;2024-01-30T00:04:16;26.17;;;18.83;;
52126;SDS011;38120;53.176;6.614;2024-01-30T00:06:42;24.17;;;20.20;;
52126;SDS011;38120;53.176;6.614;2024-01-30T00:09:08;20.92;;;18.25;;
52126;SDS011;38120;53.176;6.614;2024-01-30T00:14:01;21.58;;;19.23;;
52126;SDS011;38120;53.176;6.614;2024-01-30T00:16:27;20.60;;;18.37;;
52126;SDS011;38120;53.176;6.614;2024-01-30T00:18:53;23.35;;;18.02;;
52126;SDS011;38120;53.176;6.614;2024-01-30T00:21:20;23.30;;;19.52;;
52126;SDS011;38120;53.176;6.614;2024-01-30T00:23:46;21.92;;;19.38;;
52126;SDS011;38120;53.176;6.614;2024-01-30T00:26:12;22.48;;;17.83;;
52126;SDS011;38120;53.176;6.614;2024-01-30T00:28:40;22.45;;;19.13;;
52126;SDS011;38120;53.176;6.614;2024-01-30T00:33:32;23.23;;;19.98;;
52126;SDS011;38120;53.176;6.614;2024-01-30T00:35:57;23.43;;;20.53;;
52126;SDS011;38120;53.176;6.614;2024-01-30T00:38:23;27.75;;;21.58;;
52126;SDS011;38120;53.176;6.614;2024-01-30T00:40:49;24.70;;;18.93;;
52126;SDS011;38120;53.176;6.614;2024-01-30T00:43:16;26.55;;;21.23;;
52126;SDS011;38120;53.176;6.614;2024-01-30T00:45:43;24.93;;;20.67;;
52126;SDS011;38120;53.176;6.614;2024-01-30T00:48:09;25.02;;;21.75;;
52126;SDS011;38120;53.176;6.614;2024-01-30T00:50:35;27.35;;;22.42;;
52126;SDS011;38120;53.176;6.614;2024-01-30T00:53:01;23.38;;;19.73;;
52126;SDS011;38120;53.176;6.614;2024-01-30T00:55:26;25.23;;;22.23;;
52126;SDS011;38120;53.176;6.614;2024-01-30T00:57:52;26.00;;;22.67;;
52126;SDS011;38120;53.176;6.614;2024-01-30T01:00:18;22.30;;;19.90;;
52126;SDS011;38120;53.176;6.614;2024-01-30T01:02:45;26.27;;;22.90;;
52126;SDS011;38120;53.176;6.614;2024-01-30T01:05:11;25.43;;;19.97;;
52126;SDS011;38120;53.176;6.614;2024-01-30T01:07:37;24.83;;;21.70;;
52126;SDS011;38120;53.176;6.614;2024-01-30T01:10:03;28.20;;;22.13;;
52126;SDS011;38120;53.176;6.614;2024-01-30T01:12:29;24.95;;;22.30;;
52126;SDS011;38120;53.176;6.614;2024-01-30T01:14:54;27.98;;;22.73;;
52126;SDS011;38120;53.176;6.614;2024-01-30T01:17:20;28.43;;;20.67;;
52126;SDS011;38120;53.176;6.614;2024-01-30T01:19:52;28.55;;;22.35;;
52126;SDS011;38120;53.176;6.614;2024-01-30T01:22:17;27.37;;;23.30;;
52126;SDS011;38120;53.176;6.614;2024-01-30T01:24:43;26.40;;;23.27;;
52126;SDS011;38120;53.176;6.614;2024-01-30T01:27:09;24.40;;;21.43;;
52126;SDS011;38120;53.176;6.614;2024-01-30T01:29:34;27.73;;;23.03;;
52126;SDS011;38120;53.176;6.614;2024-01-30T01:32:00;29.50;;;22.97;;
52126;SDS011;38120;53.176;6.614;2024-01-30T01:34:26;25.93;;;22.97;;
52126;SDS011;38120;53.176;6.614;2024-01-30T01:36:51;27.00;;;21.57;;
52126;SDS011;38120;53.176;6.614;2024-01-30T01:39:20;26.77;;;21.73;;
52126;SDS011;38120;53.176;6.614;2024-01-30T01:41:47;28.63;;;23.27;;
52126;SDS011;38120;53.176;6.614;2024-01-30T01:44:13;27.38;;;22.73;;
52126;SDS011;38120;53.176;6.614;2024-01-30T01:46:39;27.90;;;22.65;;
52126;SDS011;38120;53.176;6.614;2024-01-30T01:49:05;25.67;;;22.40;;
52126;SDS011;38120;53.176;6.614;2024-01-30T01:51:33;27.25;;;22.95;;
52126;SDS011;38120;53.176;6.614;2024-01-30T01:54:03;27.98;;;22.88;;
52126;SDS011;38120;53.176;6.614;2024-01-30T01:56:30;27.58;;;23.23;;
52126;SDS011;38120;53.176;6.614;2024-01-30T01:59:04;27.38;;;23.48;;
52126;SDS011;38120;53.176;6.614;2024-01-30T02:01:33;27.40;;;23.30;;
52126;SDS011;38120;53.176;6.614;2024-01-30T02:03:59;24.73;;;22.02;;
52126;SDS011;38120;53.176;6.614;2024-01-30T02:06:26;26.25;;;22.67;;
52126;SDS011;38120;53.176;6.614;2024-01-30T02:08:52;26.70;;;22.83;;
52126;SDS011;38120;53.176;6.614;2024-01-30T02:11:18;25.92;;;23.00;;
52126;SDS011;38120;53.176;6.614;2024-01-30T02:13:45;26.48;;;23.00;;
52126;SDS011;38120;53.176;6.614;2024-01-30T02:16:11;26.27;;;22.23;;
52126;SDS011;38120;53.176;6.614;2024-01-30T02:18:36;27.93;;;21.40;;
52126;SDS011;38120;53.176;6.614;2024-01-30T02:21:07;26.40;;;21.38;;
52126;SDS011;38120;53.176;6.614;2024-01-30T02:23:33;26.65;;;22.75;;
52126;SDS011;38120;53.176;6.614;2024-01-30T02:25:59;23.50;;;19.88;;
52126;SDS011;38120;53.176;6.614;2024-01-30T02:28:25;26.40;;;21.30;;
52126;SDS011;38120;53.176;6.614;2024-01-30T02:30:51;28.17;;;22.37;;
52126;SDS011;38120;53.176;6.614;2024-01-30T02:33:16;27.17;;;21.33;;
52126;SDS011;38120;53.176;6.614;2024-01-30T02:35:42;23.23;;;20.57;;
52126;SDS011;38120;53.176;6.614;2024-01-30T02:38:08;25.98;;;22.00;;
52126;SDS011;38120;53.176;6.614;2024-01-30T02:40:34;25.37;;;20.40;;
52126;SDS011;38120;53.176;6.614;2024-01-30T02:42:59;24.60;;;20.87;;
52126;SDS011;38120;53.176;6.614;2024-01-30T02:47:52;25.83;;;21.60;;
52126;SDS011;38120;53.176;6.614;2024-01-30T02:50:17;23.63;;;20.13;;
52126;SDS011;38120;53.176;6.614;2024-01-30T02:52:43;25.33;;;20.57;;
52126;SDS011;38120;53.176;6.614;2024-01-30T02:55:09;24.37;;;20.37;;
52126;SDS011;38120;53.176;6.614;2024-01-30T02:57:40;25.15;;;20.98;;
52126;SDS011;38120;53.176;6.614;2024-01-30T03:00:06;21.33;;;18.00;;
52126;SDS011;38120;53.176;6.614;2024-01-30T03:02:34;26.52;;;21.48;;
52126;SDS011;38120;53.176;6.614;2024-01-30T03:05:00;25.25;;;20.80;;
52126;SDS011;38120;53.176;6.614;2024-01-30T03:07:26;23.67;;;20.97;;
52126;SDS011;38120;53.176;6.614;2024-01-30T03:09:51;25.43;;;19.40;;
52126;SDS011;38120;53.176;6.614;2024-01-30T03:12:17;25.52;;;20.20;;
52126;SDS011;38120;53.176;6.614;2024-01-30T03:14:43;31.02;;;20.77;;
52126;SDS011;38120;53.176;6.614;2024-01-30T03:17:09;23.80;;;19.63;;
52126;SDS011;38120;53.176;6.614;2024-01-30T03:19:34;24.63;;;19.47;;
52126;SDS011;38120;53.176;6.614;2024-01-30T03:22:00;25.97;;;20.60;;
52126;SDS011;38120;53.176;6.614;2024-01-30T03:24:26;23.83;;;19.77;;
52126;SDS011;38120;53.176;6.614;2024-01-30T03:26:52;24.17;;;19.58;;
52126;SDS011;38120;53.176;6.614;2024-01-30T03:29:18;24.95;;;20.20;;
52126;SDS011;38120;53.176;6.614;2024-01-30T03:31:43;26.03;;;20.03;;
52126;SDS011;38120;53.176;6.614;2024-01-30T03:34:09;26.37;;;20.47;;
52126;SDS011;38120;53.176;6.614;2024-01-30T03:36:35;22.13;;;19.00;;
52126;SDS011;38120;53.176;6.614;2024-01-30T03:39:00;24.33;;;20.77;;
52126;SDS011;38120;53.176;6.614;2024-01-30T03:41:26;22.35;;;19.08;;
52126;SDS011;38120;53.176;6.614;2024-01-30T03:43:52;22.70;;;20.27;;
52126;SDS011;38120;53.176;6.614;2024-01-30T03:46:18;26.40;;;21.00;;
52126;SDS011;38120;53.176;6.614;2024-01-30T03:48:44;24.33;;;20.17;;
52126;SDS011;38120;53.176;6.614;2024-01-30T03:51:11;24.33;;;21.48;;
52126;SDS011;38120;53.176;6.614;2024-01-30T03:53:40;23.48;;;19.63;;
52126;SDS011;38120;53.176;6.614;2024-01-30T03:56:07;25.85;;;20.80;;
52126;SDS011;38120;53.176;6.614;2024-01-30T03:58:32;21.13;;;18.35;;
52126;SDS011;38120;53.176;6.614;2024-01-30T04:00:58;20.70;;;18.50;;
52126;SDS011;38120;53.176;6.614;2024-01-30T04:03:24;23.87;;;19.13;;
52126;SDS011;38120;53.176;6.614;2024-01-30T04:05:51;25.10;;;18.77;;
52126;SDS011;38120;53.176;6.614;2024-01-30T04:08:17;22.73;;;19.75;;
52126;SDS011;38120;53.176;6.614;2024-01-30T04:10:43;25.05;;;20.10;;
52126;SDS011;38120;53.176;6.614;2024-01-30T04:13:09;23.15;;;19.10;;
52126;SDS011;38120;53.176;6.614;2024-01-30T04:15:35;26.35;;;19.10;;
52126;SDS011;38120;53.176;6.614;2024-01-30T04:18:01;24.13;;;19.48;;
52126;SDS011;38120;53.176;6.614;2024-01-30T04:20:26;21.60;;;17.80;;
52126;SDS011;38120;53.176;6.614;2024-01-30T04:22:52;22.27;;;18.73;;
52126;SDS011;38120;53.176;6.614;2024-01-30T04:25:18;24.93;;;18.97;;
52126;SDS011;38120;53.176;6.614;2024-01-30T04:27:44;21.13;;;18.20;;
52126;SDS011;38120;53.176;6.614;2024-01-30T04:30:10;21.88;;;17.65;;
52126;SDS011;38120;53.176;6.614;2024-01-30T04:32:36;22.00;;;18.08;;
52126;SDS011;38120;53.176;6.614;2024-01-30T04:35:02;22.00;;;17.92;;
52126;SDS011;38120;53.176;6.614;2024-01-30T04:37:28;20.70;;;17.38;;
52126;SDS011;38120;53.176;6.614;2024-01-30T04:39:54;24.48;;;17.70;;
52126;SDS011;38120;53.176;6.614;2024-01-30T04:42:20;22.23;;;18.52;;
52126;SDS011;38120;53.176;6.614;2024-01-30T04:44:45;22.15;;;18.25;;
52126;SDS011;38120;53.176;6.614;2024-01-30T04:47:11;21.63;;;17.77;;
52126;SDS011;38120;53.176;6.614;2024-01-30T04:49:39;20.98;;;17.50;;
52126;SDS011;38120;53.176;6.614;2024-01-30T04:52:05;19.88;;;16.50;;
52126;SDS011;38120;53.176;6.614;2024-01-30T04:54:31;22.05;;;16.92;;
52126;SDS011;38120;53.176;6.614;2024-01-30T04:56:58;20.25;;;17.50;;
52126;SDS011;38120;53.176;6.614;2024-01-30T04:59:24;19.77;;;16.35;;
52126;SDS011;38120;53.176;6.614;2024-01-30T05:01:49;21.75;;;17.48;;
52126;SDS011;38120;53.176;6.614;2024-01-30T05:04:15;21.93;;;16.03;;
52126;SDS011;38120;53.176;6.614;2024-01-30T05:06:41;20.58;;;17.13;;
52126;SDS011;38120;53.176;6.614;2024-01-30T05:09:07;21.33;;;15.68;;
52126;SDS011;38120;53.176;6.614;2024-01-30T05:11:40;18.88;;;16.42;;
52126;SDS011;38120;53.176;6.614;2024-01-30T05:14:06;19.30;;;16.13;;
52126;SDS011;38120;53.176;6.614;2024-01-30T05:16:33;23.05;;;16.42;;
52126;SDS011;38120;53.176;6.614;2024-01-30T05:18:59;22.63;;;16.88;;
52126;SDS011;38120;53.176;6.614;2024-01-30T05:21:25;21.80;;;16.75;;
52126;SDS011;38120;53.176;6.614;2024-01-30T05:23:51;20.03;;;16.10;;
52126;SDS011;38120;53.176;6.614;2024-01-30T05:26:17;20.08;;;16.27;;
52126;SDS011;38120;53.176;6.614;2024-01-30T05:28:43;19.05;;;15.70;;
52126;SDS011;38120;53.176;6.614;2024-01-30T05:31:11;19.08;;;16.10;;
52126;SDS011;38120;53.176;6.614;2024-01-30T05:33:37;23.15;;;16.02;;
52126;SDS011;38120;53.176;6.614;2024-01-30T05:36:03;26.63;;;16.87;;
52126;SDS011;38120;53.176;6.614;2024-01-30T05:38:29;20.60;;;16.85;;
52126;SDS011;38120;53.176;6.614;2024-01-30T05:40:55;23.35;;;16.13;;
52126;SDS011;38120;53.176;6.614;2024-01-30T05:43:23;19.83;;;16.50;;
52126;SDS011;38120;53.176;6.614;2024-01-30T05:45:49;21.15;;;15.93;;
52126;SDS011;38120;53.176;6.614;2024-01-30T05:48:15;19.20;;;15.75;;
52126;SDS011;38120;53.176;6.614;2024-01-30T05:50:41;19.15;;;16.92;;
52126;SDS011;38120;53.176;6.614;2024-01-30T05:53:06;19.77;;;15.73;;
52126;SDS011;38120;53.176;6.614;2024-01-30T05:55:32;20.67;;;15.70;;
52126;SDS011;38120;53.176;6.614;2024-01-30T05:57:58;19.17;;;15.50;;
52126;SDS011;38120;53.176;6.614;2024-01-30T06:00:23;20.87;;;15.53;;
52126;SDS011;38120;53.176;6.614;2024-01-30T06:02:51;17.77;;;15.88;;
52126;SDS011;38120;53.176;6.614;2024-01-30T06:05:16;19.87;;;16.10;;
52126;SDS011;38120;53.176;6.614;2024-01-30T06:07:42;20.23;;;16.40;;
52126;SDS011;38120;53.176;6.614;2024-01-30T06:10:08;19.43;;;15.30;;
52126;SDS011;38120;53.176;6.614;2024-01-30T06:12:34;21.70;;;15.82;;
52126;SDS011;38120;53.176;6.614;2024-01-30T06:15:01;16.73;;;14.75;;
52126;SDS011;38120;53.176;6.614;2024-01-30T06:17:27;16.45;;;14.00;;
52126;SDS011;38120;53.176;6.614;2024-01-30T06:19:53;21.15;;;15.52;;
52126;SDS011;38120;53.176;6.614;2024-01-30T06:22:19;20.83;;;14.57;;
52126;SDS011;38120;53.176;6.614;2024-01-30T06:24:45;18.15;;;14.93;;
52126;SDS011;38120;53.176;6.614;2024-01-30T06:27:13;19.08;;;15.02;;
52126;SDS011;38120;53.176;6.614;2024-01-30T06:29:40;18.35;;;14.90;;
52126;SDS011;38120;53.176;6.614;2024-01-30T06:32:07;18.50;;;14.85;;
52126;SDS011;38120;53.176;6.614;2024-01-30T06:34:33;18.97;;;15.40;;
52126;SDS011;38120;53.176;6.614;2024-01-30T06:36:58;20.93;;;15.60;;
52126;SDS011;38120;53.176;6.614;2024-01-30T06:39:25;18.27;;;14.17;;
52126;SDS011;38120;53.176;6.614;2024-01-30T06:41:52;18.42;;;15.45;;
52126;SDS011;38120;53.176;6.614;2024-01-30T06:44:17;18.40;;;14.90;;
52126;SDS011;38120;53.176;6.614;2024-01-30T06:46:43;18.52;;;14.65;;
52126;SDS011;38120;53.176;6.614;2024-01-30T06:49:09;21.37;;;14.93;;
52126;SDS011;38120;53.176;6.614;2024-01-30T06:51:35;17.73;;;14.40;;
52126;SDS011;38120;53.176;6.614;2024-01-30T06:54:00;16.60;;;13.73;;
52126;SDS011;38120;53.176;6.614;2024-01-30T06:56:26;17.70;;;14.97;;
52126;SDS011;38120;53.176;6.614;2024-01-30T06:58:53;18.30;;;15.13;;
52126;SDS011;38120;53.176;6.614;2024-01-30T07:01:18;17.55;;;13.38;;
52126;SDS011;38120;53.176;6.614;2024-01-30T07:03:44;16.17;;;13.00;;
52126;SDS011;38120;53.176;6.614;2024-01-30T07:06:10;18.40;;;14.33;;
52126;SDS011;38120;53.176;6.614;2024-01-30T07:08:36;21.97;;;13.57;;
52126;SDS011;38120;53.176;6.614;2024-01-30T07:11:04;17.15;;;14.43;;
52126;SDS011;38120;53.176;6.614;2024-01-30T07:13:31;19.67;;;14.48;;
52126;SDS011;38120;53.176;6.614;2024-01-30T07:16:09;19.13;;;14.73;;
52126;SDS011;38120;53.176;6.614;2024-01-30T07:18:35;19.95;;;14.48;;
52126;SDS011;38120;53.176;6.614;2024-01-30T07:21:01;17.87;;;12.73;;
52126;SDS011;38120;53.176;6.614;2024-01-30T07:23:27;19.80;;;15.05;;
52126;SDS011;38120;53.176;6.614;2024-01-30T07:25:54;20.65;;;15.05;;
52126;SDS011;38120;53.176;6.614;2024-01-30T07:28:20;16.87;;;13.70;;
52126;SDS011;38120;53.176;6.614;2024-01-30T07:30:51;20.33;;;14.27;;
52126;SDS011;38120;53.176;6.614;2024-01-30T07:33:25;18.02;;;14.23;;
52126;SDS011;38120;53.176;6.614;2024-01-30T07:35:52;18.97;;;15.33;;
52126;SDS011;38120;53.176;6.614;2024-01-30T07:38:18;18.60;;;14.77;;
52126;SDS011;38120;53.176;6.614;2024-01-30T07:40:44;20.23;;;14.88;;
52126;SDS011;38120;53.176;6.614;2024-01-30T07:43:10;20.85;;;15.13;;
52126;SDS011;38120;53.176;6.614;2024-01-30T07:45:36;20.83;;;14.45;;
52126;SDS011;38120;53.176;6.614;2024-01-30T07:50:30;18.17;;;13.73;;
52126;SDS011;38120;53.176;6.614;2024-01-30T07:52:56;20.77;;;14.63;;
52126;SDS011;38120;53.176;6.614;2024-01-30T07:55:21;19.90;;;14.35;;
52126;SDS011;38120;53.176;6.614;2024-01-30T07:57:53;18.42;;;14.10;;
52126;SDS011;38120;53.176;6.614;2024-01-30T08:00:20;18.15;;;14.25;;
52126;SDS011;38120;53.176;6.614;2024-01-30T08:02:47;16.05;;;13.55;;
52126;SDS011;38120;53.176;6.614;2024-01-30T08:05:13;19.20;;;14.60;;
52126;SDS011;38120;53.176;6.614;2024-01-30T08:07:40;18.08;;;14.27;;
52126;SDS011;38120;53.176;6.614;2024-01-30T08:10:11;20.48;;;15.00;;
52126;SDS011;38120;53.176;6.614;2024-01-30T08:12:38;18.13;;;13.40;;
52126;SDS011;38120;53.176;6.614;2024-01-30T08:15:04;16.90;;;13.75;;
52126;SDS011;38120;53.176;6.614;2024-01-30T08:17:30;20.45;;;13.82;;
52126;SDS011;38120;53.176;6.614;2024-01-30T08:19:56;17.63;;;13.93;;
52126;SDS011;38120;53.176;6.614;2024-01-30T08:22:21;17.43;;;13.33;;
52126;SDS011;38120;53.176;6.614;2024-01-30T08:24:47;16.63;;;13.53;;
52126;SDS011;38120;53.176;6.614;2024-01-30T08:27:13;18.37;;;13.93;;
52126;SDS011;38120;53.176;6.614;2024-01-30T08:29:38;15.67;;;12.17;;
52126;SDS011;38120;53.176;6.614;2024-01-30T08:32:05;18.40;;;14.03;;
52126;SDS011;38120;53.176;6.614;2024-01-30T08:34:31;16.13;;;12.50;;
52126;SDS011;38120;53.176;6.614;2024-01-30T08:36:57;19.77;;;13.37;;
52126;SDS011;38120;53.176;6.614;2024-01-30T08:39:22;21.13;;;13.43;;
52126;SDS011;38120;53.176;6.614;2024-01-30T08:41:48;18.13;;;13.93;;
52126;SDS011;38120;53.176;6.614;2024-01-30T08:44:14;20.33;;;13.67;;
52126;SDS011;38120;53.176;6.614;2024-01-30T08:46:40;16.60;;;12.57;;
52126;SDS011;38120;53.176;6.614;2024-01-30T08:49:05;18.60;;;12.90;;
52126;SDS011;38120;53.176;6.614;2024-01-30T08:51:31;15.20;;;12.65;;
52126;SDS011;38120;53.176;6.614;2024-01-30T08:53:57;19.23;;;13.23;;
52126;SDS011;38120;53.176;6.614;2024-01-30T08:56:22;20.27;;;12.83;;
52126;SDS011;38120;53.176;6.614;2024-01-30T08:58:48;16.17;;;13.40;;
52126;SDS011;38120;53.176;6.614;2024-01-30T09:01:14;16.03;;;12.50;;
52126;SDS011;38120;53.176;6.614;2024-01-30T09:03:40;19.60;;;12.27;;
52126;SDS011;38120;53.176;6.614;2024-01-30T09:06:08;19.05;;;12.75;;
52126;SDS011;38120;53.176;6.614;2024-01-30T09:08:34;19.13;;;13.25;;
52126;SDS011;38120;53.176;6.614;2024-01-30T09:11:00;14.20;;;11.30;;
52126;SDS011;38120;53.176;6.614;2024-01-30T09:13:26;16.67;;;12.13;;
52126;SDS011;38120;53.176;6.614;2024-01-30T09:15:51;15.43;;;12.47;;
52126;SDS011;38120;53.176;6.614;2024-01-30T09:18:18;16.90;;;12.07;;
52126;SDS011;38120;53.176;6.614;2024-01-30T09:20:44;20.33;;;13.27;;
52126;SDS011;38120;53.176;6.614;2024-01-30T09:23:12;20.15;;;12.07;;
52126;SDS011;38120;53.176;6.614;2024-01-30T09:25:38;16.23;;;13.70;;
52126;SDS011;38120;53.176;6.614;2024-01-30T09:28:04;18.63;;;13.25;;
52126;SDS011;38120;53.176;6.614;2024-01-30T09:30:30;15.50;;;11.65;;
52126;SDS011;38120;53.176;6.614;2024-01-30T09:32:56;14.77;;;11.30;;
52126;SDS011;38120;53.176;6.614;2024-01-30T09:35:22;14.80;;;11.70;;
52126;SDS011;38120;53.176;6.614;2024-01-30T09:37:47;16.98;;;12.20;;
52126;SDS011;38120;53.176;6.614;2024-01-30T09:40:13;17.10;;;13.70;;
52126;SDS011;38120;53.176;6.614;2024-01-30T09:42:44;18.20;;;11.57;;
52126;SDS011;38120;53.176;6.614;2024-01-30T09:45:14;19.42;;;12.93;;
52126;SDS011;38120;53.176;6.614;2024-01-30T09:47:40;16.88;;;11.98;;
52126;SDS011;38120;53.176;6.614;2024-01-30T09:50:10;18.00;;;12.25;;
52126;SDS011;38120;53.176;6.614;2024-01-30T09:52:37;17.77;;;12.57;;
52126;SDS011;38120;53.176;6.614;2024-01-30T09:55:04;16.42;;;11.07;;
52126;SDS011;38120;53.176;6.614;2024-01-30T09:57:30;18.60;;;11.57;;
52126;SDS011;38120;53.176;6.614;2024-01-30T09:59:56;15.27;;;12.00;;
52126;SDS011;38120;53.176;6.614;2024-01-30T10:02:22;17.05;;;12.23;;
52126;SDS011;38120;53.176;6.614;2024-01-30T10:04:49;16.52;;;12.35;;
52126;SDS011;38120;53.176;6.614;2024-01-30T10:07:18;14.70;;;12.00;;
52126;SDS011;38120;53.176;6.614;2024-01-30T10:09:45;17.15;;;12.95;;
52126;SDS011;38120;53.176;6.614;2024-01-30T10:12:16;15.70;;;11.82;;
52126;SDS011;38120;53.176;6.614;2024-01-30T10:14:42;17.17;;;12.35;;
52126;SDS011;38120;53.176;6.614;2024-01-30T10:17:08;19.25;;;11.85;;
52126;SDS011;38120;53.176;6.614;2024-01-30T10:19:39;15.75;;;12.32;;
52126;SDS011;38120;53.176;6.614;2024-01-30T10:22:06;17.42;;;11.75;;
52126;SDS011;38120;53.176;6.614;2024-01-30T10:24:35;17.67;;;12.95;;
52126;SDS011;38120;53.176;6.614;2024-01-30T10:27:01;16.70;;;12.63;;
52126;SDS011;38120;53.176;6.614;2024-01-30T10:29:28;14.88;;;11.00;;
52126;SDS011;38120;53.176;6.614;2024-01-30T10:32:00;17.70;;;11.80;;
52126;SDS011;38120;53.176;6.614;2024-01-30T10:34:27;17.00;;;12.27;;
52126;SDS011;38120;53.176;6.614;2024-01-30T10:39:31;16.20;;;12.07;;
52126;SDS011;38120;53.176;6.614;2024-01-30T10:42:02;17.63;;;12.25;;
52126;SDS011;38120;53.176;6.614;2024-01-30T10:44:33;17.50;;;11.80;;
52126;SDS011;38120;53.176;6.614;2024-01-30T10:47:21;18.95;;;12.50;;
52126;SDS011;38120;53.176;6.614;2024-01-30T10:49:52;17.92;;;12.00;;
52126;SDS011;38120;53.176;6.614;2024-01-30T10:52:19;20.60;;;12.05;;
52126;SDS011;38120;53.176;6.614;2024-01-30T10:54:47;19.88;;;13.77;;
52126;SDS011;38120;53.176;6.614;2024-01-30T10:57:16;19.05;;;12.98;;
52126;SDS011;38120;53.176;6.614;2024-01-30T10:59:42;14.82;;;12.68;;
52126;SDS011;38120;53.176;6.614;2024-01-30T11:02:09;15.38;;;12.10;;
52126;SDS011;38120;53.176;6.614;2024-01-30T11:04:45;18.20;;;12.25;;
52126;SDS011;38120;53.176;6.614;2024-01-30T11:07:17;17.52;;;13.40;;
52126;SDS011;38120;53.176;6.614;2024-01-30T11:09:52;19.92;;;12.20;;
52126;SDS011;38120;53.176;6.614;2024-01-30T11:12:21;21.27;;;12.57;;
52126;SDS011;38120;53.176;6.614;2024-01-30T11:14:50;19.73;;;12.90;;
52126;SDS011;38120;53.176;6.614;2024-01-30T11:20:29;18.05;;;12.98;;
52126;SDS011;38120;53.176;6.614;2024-01-30T11:22:58;17.98;;;12.95;;
52126;SDS011;38120;53.176;6.614;2024-01-30T11:25:32;17.65;;;12.38;;
52126;SDS011;38120;53.176;6.614;2024-01-30T11:27:58;18.33;;;12.27;;
52126;SDS011;38120;53.176;6.614;2024-01-30T11:30:25;20.85;;;13.00;;
52126;SDS011;38120;53.176;6.614;2024-01-30T11:35:32;18.63;;;12.88;;
52126;SDS011;38120;53.176;6.614;2024-01-30T11:37:59;18.25;;;11.35;;
52126;SDS011;38120;53.176;6.614;2024-01-30T11:40:29;17.08;;;10.63;;
52126;SDS011;38120;53.176;6.614;2024-01-30T11:42:56;14.35;;;9.75;;
52126;SDS011;38120;53.176;6.614;2024-01-30T11:45:23;16.27;;;10.55;;
52126;SDS011;38120;53.176;6.614;2024-01-30T11:47:49;17.00;;;9.30;;
52126;SDS011;38120;53.176;6.614;2024-01-30T11:50:14;14.90;;;8.38;;
52126;SDS011;38120;53.176;6.614;2024-01-30T11:55:08;13.47;;;6.47;;
52126;SDS011;38120;53.176;6.614;2024-01-30T11:57:35;14.55;;;6.22;;
52126;SDS011;38120;53.176;6.614;2024-01-30T12:00:05;9.85;;;5.95;;
52126;SDS011;38120;53.176;6.614;2024-01-30T12:02:38;10.75;;;5.20;;
52126;SDS011;38120;53.176;6.614;2024-01-30T12:05:05;7.65;;;4.25;;
52126;SDS011;38120;53.176;6.614;2024-01-30T12:09:57;8.82;;;3.45;;
52126;SDS011;38120;53.176;6.614;2024-01-30T12:12:27;7.63;;;3.03;;
52126;SDS011;38120;53.176;6.614;2024-01-30T12:14:54;8.98;;;2.67;;
52126;SDS011;38120;53.176;6.614;2024-01-30T12:17:30;9.32;;;3.42;;
52126;SDS011;38120;53.176;6.614;2024-01-30T12:22:36;4.10;;;2.22;;
52126;SDS011;38120;53.176;6.614;2024-01-30T12:27:36;6.00;;;2.40;;
52126;SDS011;38120;53.176;6.614;2024-01-30T12:30:09;5.40;;;2.08;;
52126;SDS011;38120;53.176;6.614;2024-01-30T12:32:45;7.00;;;2.58;;
52126;SDS011;38120;53.176;6.614;2024-01-30T12:35:13;3.65;;;1.88;;
52126;SDS011;38120;53.176;6.614;2024-01-30T12:37:40;4.82;;;1.92;;
52126;SDS011;38120;53.176;6.614;2024-01-30T12:40:07;4.03;;;1.92;;
52126;SDS011;38120;53.176;6.614;2024-01-30T12:42:34;4.43;;;1.88;;
52126;SDS011;38120;53.176;6.614;2024-01-30T12:45:03;4.70;;;1.77;;
52126;SDS011;38120;53.176;6.614;2024-01-30T12:47:30;6.30;;;1.65;;
52126;SDS011;38120;53.176;6.614;2024-01-30T12:49:59;4.97;;;1.98;;
52126;SDS011;38120;53.176;6.614;2024-01-30T12:52:25;5.13;;;1.45;;
52126;SDS011;38120;53.176;6.614;2024-01-30T12:54:51;5.45;;;1.35;;
52126;SDS011;38120;53.176;6.614;2024-01-30T12:57:17;2.90;;;1.20;;
52126;SDS011;38120;53.176;6.614;2024-01-30T13:02:20;6.07;;;1.27;;
52126;SDS011;38120;53.176;6.614;2024-01-30T13:04:47;5.53;;;1.33;;
52126;SDS011;38120;53.176;6.614;2024-01-30T13:07:13;2.87;;;1.20;;
52126;SDS011;38120;53.176;6.614;2024-01-30T13:09:39;4.83;;;1.67;;
52126;SDS011;38120;53.176;6.614;2024-01-30T13:12:04;1.52;;;1.00;;
52126;SDS011;38120;53.176;6.614;2024-01-30T13:14:30;3.08;;;1.48;;
52126;SDS011;38120;53.176;6.614;2024-01-30T13:16:56;5.20;;;1.35;;
52126;SDS011;38120;53.176;6.614;2024-01-30T13:19:22;4.97;;;1.30;;
52126;SDS011;38120;53.176;6.614;2024-01-30T13:21:47;4.37;;;1.30;;
52126;SDS011;38120;53.176;6.614;2024-01-30T13:24:13;2.07;;;1.10;;
52126;SDS011;38120;53.176;6.614;2024-01-30T13:26:39;2.42;;;1.30;;
52126;SDS011;38120;53.176;6.614;2024-01-30T13:29:07;3.35;;;1.13;;
52126;SDS011;38120;53.176;6.614;2024-01-30T13:31:33;4.20;;;1.92;;
52126;SDS011;38120;53.176;6.614;2024-01-30T13:33:59;5.00;;;1.27;;
52126;SDS011;38120;53.176;6.614;2024-01-30T13:36:25;3.03;;;0.97;;
52126;SDS011;38120;53.176;6.614;2024-01-30T13:38:51;4.22;;;1.15;;
52126;SDS011;38120;53.176;6.614;2024-01-30T13:41:16;2.10;;;1.13;;
52126;SDS011;38120;53.176;6.614;2024-01-30T13:43:43;2.25;;;0.90;;
52126;SDS011;38120;53.176;6.614;2024-01-30T13:46:09;4.50;;;1.23;;
52126;SDS011;38120;53.176;6.614;2024-01-30T13:48:35;2.13;;;0.98;;
52126;SDS011;38120;53.176;6.614;2024-01-30T13:51:01;3.28;;;0.90;;
52126;SDS011;38120;53.176;6.614;2024-01-30T13:53:27;3.70;;;1.20;;
52126;SDS011;38120;53.176;6.614;2024-01-30T13:55:53;3.30;;;1.10;;
52126;SDS011;38120;53.176;6.614;2024-01-30T13:58:19;1.98;;;1.00;;
52126;SDS011;38120;53.176;6.614;2024-01-30T14:00:46;2.50;;;0.80;;
52126;SDS011;38120;53.176;6.614;2024-01-30T14:03:12;2.67;;;1.00;;
52126;SDS011;38120;53.176;6.614;2024-01-30T14:05:37;1.43;;;0.70;;
52126;SDS011;38120;53.176;6.614;2024-01-30T14:08:03;2.13;;;0.97;;
52126;SDS011;38120;53.176;6.614;2024-01-30T14:10:30;3.40;;;1.00;;
52126;SDS011;38120;53.176;6.614;2024-01-30T14:12:56;4.90;;;0.90;;
52126;SDS011;38120;53.176;6.614;2024-01-30T14:15:22;5.32;;;1.00;;
52126;SDS011;38120;53.176;6.614;2024-01-30T14:17:47;2.17;;;1.00;;
52126;SDS011;38120;53.176;6.614;2024-01-30T14:20:14;2.78;;;1.08;;
52126;SDS011;38120;53.176;6.614;2024-01-30T14:22:43;4.07;;;1.23;;
52126;SDS011;38120;53.176;6.614;2024-01-30T14:25:09;4.72;;;1.55;;
52126;SDS011;38120;53.176;6.614;2024-01-30T14:27:35;4.30;;;1.23;;
52126;SDS011;38120;53.176;6.614;2024-01-30T14:30:01;3.28;;;1.63;;
52126;SDS011;38120;53.176;6.614;2024-01-30T14:32:28;2.97;;;1.45;;
52126;SDS011;38120;53.176;6.614;2024-01-30T14:34:54;3.15;;;1.85;;
52126;SDS011;38120;53.176;6.614;2024-01-30T14:37:22;5.97;;;2.03;;
52126;SDS011;38120;53.176;6.614;2024-01-30T14:39:48;6.78;;;2.47;;
52126;SDS011;38120;53.176;6.614;2024-01-30T14:42:14;5.85;;;2.00;;
52126;SDS011;38120;53.176;6.614;2024-01-30T14:44:41;5.22;;;2.42;;
52126;SDS011;38120;53.176;6.614;2024-01-30T14:47:07;3.47;;;1.70;;
52126;SDS011;38120;53.176;6.614;2024-01-30T14:49:33;5.57;;;2.65;;
52126;SDS011;38120;53.176;6.614;2024-01-30T14:51:59;5.93;;;2.85;;
52126;SDS011;38120;53.176;6.614;2024-01-30T14:54:25;6.72;;;2.40;;